Time;durP1;ratioP1;P1;durP2;ratioP2;P2;SDS_P1;SDS_P2;PMS_P1;PMS_P2;Temp;Humidity;BMP_temperature;BMP_pressure;BME280_temperature;BME280_humidity;BME280_pressure;Samples;Min_cycle;Max_cycle;Signal;HPM_P1;HPM_P2
2020/12/12 00:00:55;;;;;;;15.20;6.80;;;4.50;99.90;;;;;;5026130;28;20844;-83
2020/12/12 00:03:21;;;;;;;11.98;6.30;;;4.50;99.90;;;;;;5029558;28;20034;-83
2020/12/12 00:05:46;;;;;;;12.77;6.55;;;4.50;99.90;;;;;;5026240;28;20034;-84
2020/12/12 00:08:12;;;;;;;11.13;6.57;;;4.50;99.90;;;;;;5008922;28;20073;-83
2020/12/12 00:10:37;;;;;;;11.88;6.18;;;4.50;99.90;;;;;;5007233;28;20454;-82
2020/12/12 00:13:03;;;;;;;14.85;7.00;;;4.60;99.90;;;;;;5004726;28;20049;-82
2020/12/12 00:15:29;;;;;;;14.35;6.15;;;4.60;99.90;;;;;;5010649;28;20025;-85
2020/12/12 00:17:54;;;;;;;10.38;6.03;;;4.50;99.90;;;;;;5022888;28;20068;-83
2020/12/12 00:20:20;;;;;;;11.57;5.82;;;4.50;99.90;;;;;;5011167;28;20030;-83
2020/12/12 00:22:45;;;;;;;12.02;5.85;;;4.60;99.90;;;;;;5010808;28;20046;-83
2020/12/12 00:25:11;;;;;;;13.27;5.35;;;4.50;99.90;;;;;;5017929;28;20057;-86
2020/12/12 00:27:37;;;;;;;14.27;6.30;;;4.60;99.90;;;;;;5019638;28;20050;-83
2020/12/12 00:30:04;;;;;;;14.90;6.63;;;4.60;99.90;;;;;;5020592;28;20046;-83
2020/12/12 00:32:30;;;;;;;17.98;7.57;;;4.60;99.90;;;;;;5019685;28;20026;-83
2020/12/12 00:34:57;;;;;;;9.93;5.65;;;4.60;99.90;;;;;;5018220;28;20334;-83
2020/12/12 00:37:22;;;;;;;10.57;5.88;;;4.60;99.90;;;;;;5018235;28;20054;-83
2020/12/12 00:39:48;;;;;;;12.40;5.53;;;4.60;99.90;;;;;;5020530;28;20172;-84
2020/12/12 00:42:13;;;;;;;9.77;5.75;;;4.60;99.90;;;;;;5030875;28;20553;-84
2020/12/12 00:44:39;;;;;;;17.25;5.95;;;4.60;99.90;;;;;;5015538;28;20044;-84
2020/12/12 00:47:05;;;;;;;12.50;5.57;;;4.60;99.90;;;;;;5029593;28;20069;-85
2020/12/12 00:49:31;;;;;;;12.18;6.13;;;4.70;99.90;;;;;;5015760;28;20069;-84
2020/12/12 00:51:57;;;;;;;11.38;5.82;;;4.70;99.90;;;;;;5018179;28;20347;-83
2020/12/12 00:54:23;;;;;;;13.45;6.10;;;4.70;99.90;;;;;;5015775;28;20144;-83
2020/12/12 00:56:48;;;;;;;10.55;5.70;;;4.60;99.90;;;;;;5017560;28;20046;-84
2020/12/12 00:59:14;;;;;;;10.45;5.47;;;4.70;99.90;;;;;;5018257;28;20066;-86
2020/12/12 01:01:40;;;;;;;14.40;5.88;;;4.70;99.90;;;;;;5036094;28;20417;-84
2020/12/12 01:04:05;;;;;;;17.60;6.30;;;4.70;99.90;;;;;;5022540;28;20482;-83
2020/12/12 01:06:31;;;;;;;12.57;5.82;;;4.70;99.90;;;;;;5021586;28;20050;-83
2020/12/12 01:08:56;;;;;;;13.73;6.15;;;4.70;99.90;;;;;;5025823;28;21115;-84
2020/12/12 01:11:22;;;;;;;10.70;6.10;;;4.70;99.90;;;;;;5023024;28;20033;-83
2020/12/12 01:13:48;;;;;;;10.73;5.75;;;4.70;99.90;;;;;;5025450;28;20054;-83
2020/12/12 01:16:14;;;;;;;10.35;5.63;;;4.80;99.90;;;;;;5013084;28;20038;-83
2020/12/12 01:18:43;;;;;;;18.55;8.25;;;4.70;99.90;;;;;;5014155;28;20510;-85
2020/12/12 01:21:13;;;;;;;17.52;7.20;;;4.70;99.90;;;;;;5014380;28;20042;-85
2020/12/12 01:23:39;;;;;;;15.35;8.02;;;4.80;99.90;;;;;;5030067;28;20470;-83
2020/12/12 01:26:05;;;;;;;14.95;8.00;;;4.80;99.90;;;;;;5017393;28;20041;-86
2020/12/12 01:28:30;;;;;;;19.02;9.20;;;4.80;99.90;;;;;;5020154;28;20038;-83
2020/12/12 01:30:56;;;;;;;18.23;7.78;;;4.80;99.90;;;;;;5036851;28;20038;-83
2020/12/12 01:33:21;;;;;;;18.40;9.20;;;4.80;99.90;;;;;;5019300;28;20052;-84
2020/12/12 01:35:47;;;;;;;21.02;9.35;;;4.70;99.90;;;;;;5021208;28;20098;-84
2020/12/12 01:38:13;;;;;;;26.67;9.63;;;4.70;99.90;;;;;;5019567;28;21940;-84
2020/12/12 01:40:40;;;;;;;18.25;9.43;;;4.80;99.90;;;;;;5017872;28;20823;-85
2020/12/12 01:43:08;;;;;;;17.15;8.88;;;4.70;99.90;;;;;;5020092;28;20029;-84
2020/12/12 01:45:34;;;;;;;16.33;7.32;;;4.70;99.90;;;;;;5034588;28;20049;-84
2020/12/12 01:48:00;;;;;;;14.18;8.07;;;4.70;99.90;;;;;;5021611;28;20498;-84
2020/12/12 01:50:26;;;;;;;16.50;8.35;;;4.80;99.90;;;;;;5035750;28;20048;-83
2020/12/12 01:52:52;;;;;;;19.50;8.18;;;4.80;99.90;;;;;;5020461;28;20072;-84
2020/12/12 01:55:19;;;;;;;17.45;7.97;;;4.70;99.90;;;;;;5020889;28;20445;-84
2020/12/12 01:57:51;;;;;;;15.25;7.38;;;4.80;99.90;;;;;;5023198;28;20037;-84
2020/12/12 02:00:17;;;;;;;18.85;8.13;;;4.80;99.90;;;;;;5035416;28;20029;-84
2020/12/12 02:02:48;;;;;;;13.75;6.70;;;4.70;99.90;;;;;;5023461;28;20061;-84
2020/12/12 02:05:38;;;;;;;14.55;6.72;;;4.70;99.90;;;;;;5019351;28;21073;-83
2020/12/12 02:08:15;;;;;;;11.45;6.35;;;4.70;99.90;;;;;;5021462;28;20053;-84
2020/12/12 02:10:43;;;;;;;10.35;6.25;;;4.80;99.90;;;;;;5019261;28;20054;-83
2020/12/12 02:13:10;;;;;;;16.50;7.80;;;4.80;99.90;;;;;;5019433;28;20046;-83
2020/12/12 02:15:37;;;;;;;16.92;7.88;;;4.80;99.90;;;;;;5020399;28;20620;-85
2020/12/12 02:18:06;;;;;;;15.48;8.82;;;4.80;99.90;;;;;;5017745;28;20053;-84
2020/12/12 02:20:32;;;;;;;16.38;8.30;;;4.80;99.90;;;;;;5036427;28;20049;-84
2020/12/12 02:22:58;;;;;;;17.27;7.10;;;4.80;99.90;;;;;;5016837;28;20034;-84
2020/12/12 02:25:24;;;;;;;14.52;7.93;;;4.70;99.90;;;;;;5014685;28;20112;-82
2020/12/12 02:27:52;;;;;;;15.18;7.03;;;4.70;99.90;;;;;;5034647;28;20029;-82
2020/12/12 02:30:18;;;;;;;16.20;7.53;;;4.70;99.90;;;;;;5017574;28;20100;-84
2020/12/12 02:32:43;;;;;;;11.82;6.47;;;4.80;99.90;;;;;;5035497;28;20044;-83
2020/12/12 02:35:09;;;;;;;14.98;7.40;;;4.80;99.90;;;;;;5033123;28;20042;-83
2020/12/12 02:37:35;;;;;;;13.60;6.95;;;4.70;99.90;;;;;;5023003;28;20049;-83
2020/12/12 02:40:00;;;;;;;13.25;6.65;;;4.70;99.90;;;;;;5016543;28;20046;-84
2020/12/12 02:42:26;;;;;;;11.70;6.13;;;4.60;99.90;;;;;;5025256;28;20573;-83
2020/12/12 02:44:53;;;;;;;13.88;6.65;;;4.50;99.90;;;;;;5010181;28;20042;-83
2020/12/12 02:47:19;;;;;;;10.10;6.20;;;4.60;99.90;;;;;;5007929;28;20538;-83
2020/12/12 02:49:55;;;;;;;10.27;6.05;;;4.60;99.90;;;;;;5026513;28;20041;-83
2020/12/12 02:52:20;;;;;;;15.52;6.70;;;4.50;99.90;;;;;;5010883;28;20045;-83
2020/12/12 02:54:46;;;;;;;18.92;7.10;;;4.50;99.90;;;;;;5031919;28;20102;-83
2020/12/12 02:57:11;;;;;;;12.13;6.22;;;4.50;99.90;;;;;;5018639;28;20077;-83
2020/12/12 02:59:37;;;;;;;13.68;6.80;;;4.50;99.90;;;;;;5032988;28;20045;-83
2020/12/12 03:02:02;;;;;;;12.38;6.50;;;4.50;99.90;;;;;;5009705;28;20056;-84
2020/12/12 03:04:28;;;;;;;14.23;6.68;;;4.90;99.90;;;;;;5034898;28;20022;-84
2020/12/12 03:06:53;;;;;;;11.75;6.50;;;4.60;99.90;;;;;;5027473;28;20046;-84
2020/12/12 03:09:19;;;;;;;14.15;6.95;;;4.60;99.90;;;;;;5028046;28;20128;-85
2020/12/12 03:11:44;;;;;;;13.18;6.75;;;4.60;99.90;;;;;;5038265;28;20153;-84
2020/12/12 03:14:10;;;;;;;15.73;7.90;;;4.60;99.90;;;;;;5030655;28;20052;-83
2020/12/12 03:16:35;;;;;;;14.55;6.78;;;4.60;99.90;;;;;;5015518;28;20053;-83
2020/12/12 03:19:01;;;;;;;14.63;6.20;;;4.70;99.90;;;;;;5012599;28;20097;-83
2020/12/12 03:21:26;;;;;;;13.98;6.47;;;4.70;99.90;;;;;;5021700;28;20072;-83
2020/12/12 03:23:52;;;;;;;13.45;6.30;;;4.70;99.90;;;;;;5023234;28;20041;-83
2020/12/12 03:26:17;;;;;;;10.85;5.82;;;4.70;99.90;;;;;;5020117;28;20178;-84
2020/12/12 03:28:43;;;;;;;11.85;5.47;;;5.00;99.90;;;;;;5012410;28;20038;-84
2020/12/12 03:31:09;;;;;;;10.77;5.70;;;4.70;99.90;;;;;;5033302;28;20061;-84
2020/12/12 03:33:34;;;;;;;11.98;6.00;;;4.70;99.90;;;;;;5016983;28;20080;-84
2020/12/12 03:36:00;;;;;;;9.38;5.03;;;4.70;99.90;;;;;;5016562;28;20049;-84
2020/12/12 03:38:25;;;;;;;11.15;5.70;;;4.70;99.90;;;;;;5016375;28;22069;-83
2020/12/12 03:40:51;;;;;;;11.07;6.32;;;4.70;99.90;;;;;;5017331;28;20052;-84
2020/12/12 03:43:16;;;;;;;13.32;6.05;;;4.70;99.90;;;;;;5016743;28;20068;-83
2020/12/12 03:45:42;;;;;;;9.80;5.60;;;4.70;99.90;;;;;;5017327;28;20053;-83
2020/12/12 03:48:07;;;;;;;12.25;5.72;;;4.70;99.90;;;;;;5017961;28;20037;-84
2020/12/12 03:50:33;;;;;;;13.15;6.35;;;4.70;99.90;;;;;;5019723;28;20026;-84
2020/12/12 03:52:58;;;;;;;11.77;5.97;;;4.80;99.90;;;;;;5019980;28;20037;-84
2020/12/12 03:55:24;;;;;;;12.60;6.70;;;4.80;99.90;;;;;;5017839;28;20140;-84
2020/12/12 03:57:50;;;;;;;14.05;6.32;;;4.80;99.90;;;;;;5018583;28;20145;-83
2020/12/12 04:00:16;;;;;;;14.02;6.30;;;4.90;99.90;;;;;;5017036;28;20137;-84
2020/12/12 04:02:41;;;;;;;12.77;6.70;;;4.80;99.90;;;;;;5018435;28;20030;-84
2020/12/12 04:05:07;;;;;;;14.73;6.13;;;4.80;99.90;;;;;;5016532;28;20038;-83
2020/12/12 04:07:32;;;;;;;11.15;6.38;;;4.80;99.90;;;;;;5015777;28;20053;-83
2020/12/12 04:09:58;;;;;;;10.27;5.75;;;4.90;99.90;;;;;;5019413;28;20030;-84
2020/12/12 04:12:23;;;;;;;11.05;6.28;;;4.90;99.90;;;;;;5022626;28;20033;-84
2020/12/12 04:14:50;;;;;;;9.98;5.82;;;4.90;99.90;;;;;;5037731;28;20196;-84
2020/12/12 04:17:15;;;;;;;9.73;5.53;;;4.90;99.90;;;;;;5019430;28;20057;-83
2020/12/12 04:19:41;;;;;;;11.05;5.78;;;4.90;99.90;;;;;;5035554;28;20038;-84
2020/12/12 04:22:06;;;;;;;10.02;6.15;;;4.90;99.90;;;;;;5019923;28;20167;-84
2020/12/12 04:24:32;;;;;;;10.40;5.63;;;4.90;99.90;;;;;;5034899;28;20414;-83
2020/12/12 04:26:57;;;;;;;11.60;6.50;;;4.90;99.90;;;;;;5019541;28;20041;-83
2020/12/12 04:29:23;;;;;;;9.30;5.78;;;4.90;99.90;;;;;;5018204;28;20026;-83
2020/12/12 04:31:48;;;;;;;13.13;6.68;;;4.90;99.90;;;;;;5030388;28;20053;-84
2020/12/12 04:34:14;;;;;;;14.75;6.35;;;4.90;99.90;;;;;;5012987;28;20053;-84
2020/12/12 04:36:39;;;;;;;14.75;7.03;;;4.90;99.90;;;;;;5018414;28;20046;-83
2020/12/12 04:39:05;;;;;;;12.82;6.93;;;4.90;99.90;;;;;;5018258;28;20049;-84
2020/12/12 04:41:33;;;;;;;10.95;6.05;;;4.90;99.90;;;;;;5022153;28;20038;-82
2020/12/12 04:43:59;;;;;;;14.52;6.70;;;4.90;99.90;;;;;;5024159;28;20133;-83
2020/12/12 04:46:26;;;;;;;10.63;6.15;;;4.90;99.90;;;;;;5010619;28;20073;-83
2020/12/12 04:48:52;;;;;;;10.80;6.07;;;4.90;99.90;;;;;;5011381;28;20046;-83
2020/12/12 04:51:17;;;;;;;14.02;5.90;;;4.90;99.90;;;;;;5022086;28;20072;-84
2020/12/12 04:53:44;;;;;;;10.45;6.28;;;4.90;99.90;;;;;;5024786;28;20034;-84
2020/12/12 04:56:21;;;;;;;12.00;6.68;;;5.00;99.90;;;;;;5023044;28;20038;-83
2020/12/12 04:58:49;;;;;;;10.52;5.53;;;4.90;99.90;;;;;;5019912;28;20128;-85
2020/12/12 05:01:17;;;;;;;11.18;6.63;;;5.00;99.90;;;;;;5020139;28;20103;-84
2020/12/12 05:03:44;;;;;;;10.07;6.43;;;5.00;99.90;;;;;;5017870;28;20042;-84
2020/12/12 05:06:10;;;;;;;14.50;7.03;;;5.00;99.90;;;;;;5023395;28;20034;-84
2020/12/12 05:08:35;;;;;;;9.13;5.72;;;5.00;99.90;;;;;;5033634;28;20106;-85
2020/12/12 05:11:02;;;;;;;11.82;6.32;;;5.00;99.90;;;;;;5029967;28;20107;-84
2020/12/12 05:13:29;;;;;;;12.52;6.57;;;5.00;99.90;;;;;;5010058;28;20042;-83
2020/12/12 05:15:57;;;;;;;10.18;5.80;;;5.00;99.90;;;;;;5010545;28;20129;-83
2020/12/12 05:18:22;;;;;;;10.10;6.28;;;5.00;99.90;;;;;;5008433;28;20065;-83
2020/12/12 05:20:49;;;;;;;12.30;6.93;;;5.10;99.90;;;;;;5008496;28;20525;-84
2020/12/12 05:23:19;;;;;;;15.55;6.13;;;5.10;99.90;;;;;;5009043;28;20198;-83
2020/12/12 05:25:46;;;;;;;11.10;6.75;;;5.10;99.90;;;;;;5010977;28;20034;-84
2020/12/12 05:28:15;;;;;;;13.55;6.13;;;5.10;99.90;;;;;;5007781;28;20038;-83
2020/12/12 05:30:43;;;;;;;13.88;7.13;;;5.10;99.90;;;;;;5016077;28;20034;-83
2020/12/12 05:33:11;;;;;;;10.75;6.53;;;5.20;99.90;;;;;;5014344;28;20156;-84
2020/12/12 05:35:37;;;;;;;11.30;6.07;;;5.10;99.90;;;;;;5022880;28;20081;-84
2020/12/12 05:38:05;;;;;;;11.13;6.18;;;5.20;99.90;;;;;;5018637;28;20034;-83
2020/12/12 05:40:32;;;;;;;10.00;5.63;;;5.20;99.90;;;;;;5017968;28;20029;-85
2020/12/12 05:43:02;;;;;;;10.93;5.82;;;5.20;99.90;;;;;;5034103;28;20053;-83
2020/12/12 05:45:28;;;;;;;10.93;5.95;;;5.20;99.90;;;;;;5014852;28;20034;-83
2020/12/12 05:47:54;;;;;;;10.80;6.45;;;5.20;99.90;;;;;;5031829;28;20037;-84
2020/12/12 05:50:20;;;;;;;13.30;5.63;;;5.20;99.90;;;;;;5016141;28;20570;-84
2020/12/12 05:52:50;;;;;;;11.05;6.35;;;5.20;99.90;;;;;;5020695;28;20045;-85
2020/12/12 05:55:16;;;;;;;9.60;5.25;;;5.30;99.90;;;;;;5020357;28;20129;-84
2020/12/12 05:57:43;;;;;;;8.85;5.25;;;5.30;99.90;;;;;;5031639;28;20050;-83
2020/12/12 06:00:08;;;;;;;9.48;5.55;;;5.20;99.90;;;;;;5016625;28;20038;-84
2020/12/12 06:02:36;;;;;;;14.40;5.60;;;5.30;99.90;;;;;;5019131;28;20513;-84
2020/12/12 06:05:06;;;;;;;11.25;5.68;;;5.20;99.90;;;;;;5020655;28;20050;-85
2020/12/12 06:07:33;;;;;;;10.75;5.88;;;5.30;99.90;;;;;;5019848;28;20054;-84
2020/12/12 06:10:06;;;;;;;9.82;5.70;;;5.30;99.90;;;;;;5018730;28;20042;-84
2020/12/12 06:12:34;;;;;;;11.55;5.72;;;5.30;99.90;;;;;;5022780;28;20049;-82
2020/12/12 06:15:00;;;;;;;9.80;5.70;;;5.30;99.90;;;;;;5024001;28;20121;-84
2020/12/12 06:17:37;;;;;;;9.63;5.55;;;5.30;99.90;;;;;;5040752;28;20041;-83
2020/12/12 06:20:05;;;;;;;10.60;5.97;;;5.30;99.90;;;;;;5028954;28;20049;-83
2020/12/12 06:22:32;;;;;;;10.25;5.55;;;5.20;99.90;;;;;;5046669;28;20052;-84
2020/12/12 06:25:02;;;;;;;9.38;5.32;;;5.30;99.90;;;;;;5034855;28;20030;-83
2020/12/12 06:27:35;;;;;;;14.02;6.75;;;5.30;99.90;;;;;;5036237;28;20061;-85
2020/12/12 06:30:03;;;;;;;10.52;5.53;;;5.30;99.90;;;;;;5018660;28;20042;-84
2020/12/12 06:32:29;;;;;;;10.05;5.63;;;5.20;99.90;;;;;;5003668;28;20033;-83
2020/12/12 06:34:55;;;;;;;9.65;5.30;;;5.20;99.90;;;;;;5011090;28;20041;-84
2020/12/12 06:37:30;;;;;;;9.95;5.75;;;5.20;99.90;;;;;;5005948;28;20160;-82
2020/12/12 06:39:58;;;;;;;11.23;5.90;;;5.20;99.90;;;;;;5009807;28;20030;-83
2020/12/12 06:42:31;;;;;;;9.82;5.72;;;5.20;99.90;;;;;;5011667;28;20073;-83
2020/12/12 06:44:57;;;;;;;12.60;6.63;;;5.20;99.90;;;;;;5010545;28;20099;-84
2020/12/12 06:47:37;;;;;;;10.77;5.78;;;5.20;99.90;;;;;;5024493;28;20729;-84
2020/12/12 06:50:31;;;;;;;13.88;5.78;;;5.20;99.90;;;;;;5008591;28;20038;-84
2020/12/12 06:52:57;;;;;;;9.40;5.67;;;5.20;99.90;;;;;;5011325;28;20042;-81
2020/12/12 06:55:24;;;;;;;9.45;5.35;;;5.20;99.90;;;;;;5000231;28;20069;-83
2020/12/12 06:57:56;;;;;;;10.27;4.82;;;5.20;99.90;;;;;;5009952;28;20048;-84
2020/12/12 07:00:32;;;;;;;10.18;6.07;;;5.20;99.90;;;;;;5026009;28;20544;-83
2020/12/12 07:03:06;;;;;;;11.00;5.55;;;5.20;99.90;;;;;;5014577;28;20042;-84
2020/12/12 07:05:36;;;;;;;9.23;5.07;;;5.20;99.90;;;;;;5018418;28;20076;-83
2020/12/12 07:08:09;;;;;;;12.95;5.63;;;5.20;99.90;;;;;;5018495;28;20057;-84
2020/12/12 07:10:44;;;;;;;8.65;5.20;;;5.20;99.90;;;;;;5018302;28;20041;-83
2020/12/12 07:13:10;;;;;;;;;;;5.20;99.90;;;;;;5017085;28;20044;-84
2020/12/12 07:15:37;;;;;;;9.23;5.53;;;5.20;99.90;;;;;;5015257;28;19924;-83
2020/12/12 07:18:07;;;;;;;9.07;5.30;;;5.20;99.90;;;;;;5011309;28;20900;-82
2020/12/12 07:20:37;;;;;;;8.65;5.40;;;5.20;99.90;;;;;;5015706;28;20044;-82
2020/12/12 07:23:04;;;;;;;11.90;5.50;;;5.20;99.90;;;;;;5019872;28;20534;-83
2020/12/12 07:25:31;;;;;;;9.60;5.05;;;5.20;99.90;;;;;;5015950;28;20137;-82
2020/12/12 07:27:56;;;;;;;12.55;5.20;;;5.20;99.90;;;;;;5015572;28;20065;-82
2020/12/12 07:30:22;;;;;;;8.10;5.07;;;5.30;99.90;;;;;;5014697;28;20030;-82
2020/12/12 07:32:48;;;;;;;8.55;4.85;;;5.30;99.90;;;;;;5017402;28;20034;-83
2020/12/12 07:35:14;;;;;;;12.40;5.00;;;5.30;99.90;;;;;;5018286;28;20170;-85
2020/12/12 07:37:39;;;;;;;16.25;5.65;;;5.30;99.90;;;;;;5018432;28;20440;-83
2020/12/12 07:40:05;;;;;;;9.98;5.55;;;5.40;99.90;;;;;;5024600;28;20052;-83
2020/12/12 07:42:34;;;;;;;10.07;5.47;;;5.40;99.90;;;;;;5030923;28;20025;-84
2020/12/12 07:47:34;;;;;;;10.23;5.82;;;5.40;99.90;;;;;;5015453;28;20041;-83
2020/12/12 07:50:02;;;;;;;8.48;4.97;;;5.40;99.90;;;;;;5019926;28;20038;-83
2020/12/12 07:52:28;;;;;;;7.88;4.78;;;5.40;99.90;;;;;;5016844;28;20053;-84
2020/12/12 07:55:06;;;;;;;9.10;5.25;;;5.50;99.90;;;;;;5019855;28;20528;-84
2020/12/12 07:57:35;;;;;;;15.05;5.13;;;5.50;99.90;;;;;;5015594;28;20415;-84
2020/12/12 08:00:08;;;;;;;10.52;5.22;;;5.50;99.90;;;;;;5017205;28;21161;-84
2020/12/12 08:02:34;;;;;;;9.10;5.20;;;5.50;99.90;;;;;;5034196;28;20053;-84
2020/12/12 08:05:04;;;;;;;9.32;5.47;;;5.50;99.90;;;;;;5013716;28;20046;-85
2020/12/12 08:07:31;;;;;;;8.68;4.90;;;5.60;99.90;;;;;;5014220;28;20496;-84
2020/12/12 08:09:58;;;;;;;10.63;5.10;;;5.60;99.90;;;;;;5017353;28;20038;-84
2020/12/12 08:12:29;;;;;;;7.95;4.32;;;5.60;99.90;;;;;;5022990;28;20041;-84
2020/12/12 08:14:56;;;;;;;11.52;4.82;;;5.60;99.90;;;;;;5025700;28;20033;-85
2020/12/12 08:17:31;;;;;;;9.60;5.50;;;5.60;99.90;;;;;;5014195;28;20042;-84
2020/12/12 08:19:57;;;;;;;7.38;4.97;;;5.60;99.90;;;;;;5012775;28;20041;-84
2020/12/12 08:22:24;;;;;;;8.45;5.30;;;5.70;99.90;;;;;;5031738;28;20105;-84
2020/12/12 08:24:50;;;;;;;8.15;4.72;;;5.70;99.90;;;;;;5026641;28;20042;-84
2020/12/12 08:27:20;;;;;;;9.00;5.25;;;5.60;99.90;;;;;;5042246;28;20072;-85
2020/12/12 08:29:54;;;;;;;8.35;4.93;;;5.60;99.90;;;;;;5025592;28;20057;-85
2020/12/12 08:32:30;;;;;;;9.65;5.28;;;5.70;99.90;;;;;;5028182;28;20098;-84
2020/12/12 08:35:15;;;;;;;13.52;5.72;;;5.70;99.90;;;;;;5024226;28;20053;-85
2020/12/12 08:38:00;;;;;;;9.73;5.13;;;5.60;99.90;;;;;;5038671;28;20544;-85
2020/12/12 08:40:31;;;;;;;9.57;5.28;;;5.70;99.90;;;;;;5021286;28;20454;-85
2020/12/12 08:43:07;;;;;;;8.40;4.88;;;5.70;99.90;;;;;;5021793;28;20050;-85
2020/12/12 08:45:36;;;;;;;8.65;4.70;;;5.70;99.90;;;;;;5021870;28;20041;-86
2020/12/12 08:48:05;;;;;;;11.25;5.03;;;5.70;99.90;;;;;;5025570;28;20060;-86
2020/12/12 08:50:47;;;;;;;10.77;5.65;;;5.70;99.90;;;;;;5032324;28;20034;-87
2020/12/12 08:53:35;;;;;;;9.75;5.80;;;5.70;99.90;;;;;;5032142;28;20040;-85
2020/12/12 08:56:22;;;;;;;12.52;6.75;;;5.80;99.90;;;;;;5024477;28;20042;-86
2020/12/12 08:58:50;;;;;;;8.05;4.95;;;5.80;99.90;;;;;;5020462;28;20053;-86
2020/12/12 09:01:15;;;;;;;10.73;5.43;;;5.90;99.90;;;;;;5039023;28;20102;-85
2020/12/12 09:03:53;;;;;;;9.90;5.13;;;5.60;99.90;;;;;;5036027;28;20065;-85
2020/12/12 09:06:19;;;;;;;17.42;5.10;;;5.90;99.90;;;;;;5035788;28;20678;-86
2020/12/12 09:08:45;;;;;;;11.77;5.55;;;6.00;99.90;;;;;;5025329;28;20065;-86
2020/12/12 09:11:16;;;;;;;8.13;5.13;;;6.00;99.90;;;;;;5026047;28;20030;-86
2020/12/12 09:13:42;;;;;;;8.18;4.90;;;6.00;99.90;;;;;;5020448;28;20052;-85
2020/12/12 09:16:09;;;;;;;11.38;5.00;;;6.10;99.90;;;;;;5020200;28;20053;-85
2020/12/12 09:18:45;;;;;;;9.70;4.50;;;6.10;99.90;;;;;;5020971;28;20034;-88
2020/12/12 09:21:11;;;;;;;11.40;6.18;;;6.20;99.90;;;;;;5034248;28;20037;-84
2020/12/12 09:23:36;;;;;;;10.35;4.72;;;6.20;99.90;;;;;;5013828;28;20042;-85
2020/12/12 09:26:03;;;;;;;12.40;5.30;;;6.20;99.90;;;;;;5012288;28;20566;-86
2020/12/12 09:28:28;;;;;;;8.93;5.07;;;6.20;99.90;;;;;;5024490;28;20037;-85
2020/12/12 09:30:54;;;;;;;9.10;4.72;;;6.20;99.90;;;;;;5023805;28;20045;-85
2020/12/12 09:33:22;;;;;;;8.48;4.80;;;6.30;99.90;;;;;;5033012;28;20050;-85
2020/12/12 09:35:48;;;;;;;11.05;5.03;;;6.40;99.90;;;;;;5032465;28;20069;-84
2020/12/12 09:38:13;;;;;;;10.35;4.68;;;6.40;99.90;;;;;;5026366;28;20046;-84
2020/12/12 09:40:43;;;;;;;8.73;4.72;;;6.50;99.90;;;;;;5025108;28;20065;-84
2020/12/12 09:43:11;;;;;;;8.32;4.43;;;6.50;99.90;;;;;;5023687;28;20096;-85
2020/12/12 09:45:37;;;;;;;7.90;4.13;;;6.50;99.90;;;;;;5023903;28;20476;-82
2020/12/12 09:48:03;;;;;;;7.53;4.55;;;6.50;99.90;;;;;;5014381;28;20077;-84
2020/12/12 09:50:35;;;;;;;7.85;4.45;;;6.50;99.90;;;;;;5027254;28;20052;-85
2020/12/12 09:53:05;;;;;;;14.65;4.25;;;6.50;99.90;;;;;;5031883;28;20037;-82
2020/12/12 09:55:35;;;;;;;7.00;3.83;;;6.50;99.90;;;;;;5042257;28;20026;-83
2020/12/12 09:58:09;;;;;;;7.30;3.75;;;6.50;99.90;;;;;;5024548;28;20044;-83
2020/12/12 10:00:39;;;;;;;8.55;4.63;;;6.60;99.90;;;;;;5017154;28;20359;-82
2020/12/12 10:03:05;;;;;;;8.40;4.07;;;6.70;99.90;;;;;;5020982;28;20046;-84
2020/12/12 10:05:34;;;;;;;8.98;4.97;;;6.50;99.90;;;;;;5017406;28;20052;-82
2020/12/12 10:08:01;;;;;;;7.93;4.28;;;6.60;99.90;;;;;;5020171;28;20068;-81
2020/12/12 10:10:28;;;;;;;7.25;4.28;;;6.60;99.90;;;;;;5025911;28;20026;-82
2020/12/12 10:12:54;;;;;;;8.18;4.43;;;6.60;99.90;;;;;;5026857;28;20046;-84
2020/12/12 10:15:21;;;;;;;8.45;5.20;;;6.70;99.90;;;;;;5024070;28;20064;-84
2020/12/12 10:17:47;;;;;;;9.15;4.47;;;6.70;99.90;;;;;;5020513;28;20048;-83
2020/12/12 10:20:13;;;;;;;7.72;4.65;;;6.70;99.90;;;;;;5039542;28;20038;-83
2020/12/12 10:22:42;;;;;;;10.32;4.90;;;6.80;99.90;;;;;;5023686;28;20030;-82
2020/12/12 10:25:08;;;;;;;11.23;4.63;;;6.90;99.90;;;;;;5023268;28;20099;-85
2020/12/12 10:27:34;;;;;;;6.30;3.65;;;7.00;99.90;;;;;;5023074;28;20161;-82
2020/12/12 10:30:00;;;;;;;7.60;3.78;;;7.10;99.90;;;;;;5037875;28;20457;-83
2020/12/12 10:32:26;;;;;;;10.20;3.20;;;7.20;99.90;;;;;;5035195;28;20073;-82
2020/12/12 10:34:51;;;;;;;6.30;3.47;;;7.30;99.90;;;;;;5019935;28;20792;-80
2020/12/12 10:37:17;;;;;;;4.88;3.00;;;7.30;99.90;;;;;;5022095;28;20081;-83
2020/12/12 10:39:51;;;;;;;7.85;3.30;;;7.50;99.90;;;;;;5021601;28;20084;-82
2020/12/12 10:42:17;;;;;;;7.18;3.35;;;7.50;99.90;;;;;;5023941;28;20049;-82
2020/12/12 10:44:42;;;;;;;6.53;3.17;;;7.60;99.90;;;;;;5021522;28;20050;-82
2020/12/12 10:47:08;;;;;;;8.13;2.97;;;7.70;99.90;;;;;;5039769;28;20137;-82
2020/12/12 10:49:33;;;;;;;4.40;2.72;;;7.70;99.90;;;;;;5024055;28;20046;-82
2020/12/12 10:52:01;;;;;;;6.05;2.97;;;7.60;99.90;;;;;;5024269;28;20068;-82
2020/12/12 10:54:28;;;;;;;4.68;2.40;;;7.60;99.90;;;;;;5025392;28;20049;-82
2020/12/12 10:56:54;;;;;;;4.65;2.60;;;7.50;99.90;;;;;;5023279;28;20042;-81
2020/12/12 10:59:19;;;;;;;4.25;2.63;;;7.50;99.90;;;;;;5022601;28;20045;-80
2020/12/12 11:02:10;;;;;;;7.07;2.72;;;7.40;99.90;;;;;;5023072;28;20496;-81
2020/12/12 11:04:36;;;;;;;5.65;2.85;;;7.50;99.90;;;;;;5026004;28;20160;-82
2020/12/12 11:07:02;;;;;;;5.65;2.97;;;7.50;99.90;;;;;;5023068;28;20026;-83
2020/12/12 11:09:28;;;;;;;7.28;2.90;;;7.50;99.90;;;;;;5020274;28;20660;-82
2020/12/12 11:11:53;;;;;;;4.97;2.67;;;7.50;99.90;;;;;;5022697;28;20057;-83
2020/12/12 11:14:19;;;;;;;7.00;2.63;;;7.50;99.90;;;;;;5036978;28;20052;-82
2020/12/12 11:16:44;;;;;;;3.67;2.33;;;7.40;99.90;;;;;;5019581;28;20105;-82
2020/12/12 11:19:10;;;;;;;3.80;2.03;;;7.40;99.90;;;;;;5021132;28;20025;-83
2020/12/12 11:21:35;;;;;;;4.15;2.47;;;7.50;99.90;;;;;;5022725;28;20038;-82
2020/12/12 11:24:01;;;;;;;4.00;2.25;;;7.50;99.90;;;;;;5020297;28;20041;-82
2020/12/12 11:26:27;;;;;;;5.40;2.67;;;7.50;99.90;;;;;;5021954;28;20053;-82
2020/12/12 11:28:52;;;;;;;5.75;2.22;;;7.60;99.90;;;;;;5014478;28;20514;-82
2020/12/12 11:31:21;;;;;;;5.00;2.17;;;7.70;99.90;;;;;;5039237;28;20602;-81
2020/12/12 11:33:52;;;;;;;4.88;2.10;;;7.70;99.90;;;;;;5039599;28;20046;-81
2020/12/12 11:39:10;;;;;;;3.60;2.40;;;7.60;99.90;;;;;;5021973;28;20053;-81
2020/12/12 11:46:51;;;;;;;6.60;3.58;;;7.50;99.90;;;;;;5025430;28;20046;-80
2020/12/12 11:49:19;;;;;;;4.28;2.08;;;7.50;99.90;;;;;;5009590;28;20105;-81
2020/12/12 11:51:45;;;;;;;3.13;2.30;;;7.50;99.90;;;;;;5027891;28;20466;-81
2020/12/12 11:54:10;;;;;;;8.88;2.15;;;7.60;99.90;;;;;;5028473;28;20060;-81
2020/12/12 11:56:36;;;;;;;6.78;2.35;;;7.60;99.90;;;;;;5016341;28;20042;-81
2020/12/12 11:59:02;;;;;;;5.22;2.65;;;7.70;99.90;;;;;;5019692;28;20057;-81
2020/12/12 12:01:28;;;;;;;6.65;2.15;;;7.70;99.90;;;;;;5020887;28;20034;-82
2020/12/12 12:03:56;;;;;;;8.18;2.65;;;7.80;99.90;;;;;;5020159;28;20050;-82
2020/12/12 12:06:22;;;;;;;7.50;2.60;;;7.80;99.90;;;;;;5020066;28;20041;-83
2020/12/12 12:11:34;;;;;;;6.88;2.80;;;7.90;99.90;;;;;;5010871;28;20045;-82
2020/12/12 12:14:05;;;;;;;5.50;2.88;;;8.00;99.90;;;;;;5016193;28;20037;-81
2020/12/12 12:16:36;;;;;;;4.03;2.33;;;7.90;99.90;;;;;;5017816;28;20042;-81
2020/12/12 12:19:06;;;;;;;6.15;2.50;;;8.00;99.90;;;;;;5018635;28;20042;-81
2020/12/12 12:21:34;;;;;;;5.72;2.65;;;8.00;99.90;;;;;;5015920;28;20034;-82
2020/12/12 12:24:00;;;;;;;5.47;2.58;;;8.00;99.90;;;;;;5018121;28;20042;-82
2020/12/12 12:26:26;;;;;;;5.05;2.53;;;8.00;99.90;;;;;;5029962;28;20041;-81
2020/12/12 12:28:52;;;;;;;10.95;2.67;;;8.00;99.90;;;;;;5009295;28;20152;-83
2020/12/12 12:31:22;;;;;;;9.23;2.70;;;8.00;99.90;;;;;;5019685;28;20056;-81
2020/12/12 12:33:47;;;;;;;5.07;2.75;;;8.00;99.90;;;;;;5017807;28;20060;-80
2020/12/12 12:36:14;;;;;;;5.25;2.53;;;8.00;99.90;;;;;;5032458;28;20042;-81
2020/12/12 12:38:40;;;;;;;5.28;2.83;;;7.90;99.90;;;;;;5023996;28;20149;-79
2020/12/12 12:41:05;;;;;;;5.18;2.42;;;8.00;99.90;;;;;;5022154;28;20042;-82
2020/12/12 12:43:31;;;;;;;7.70;3.05;;;8.00;99.90;;;;;;5032215;28;20041;-82
2020/12/12 12:45:56;;;;;;;5.13;2.40;;;8.00;99.90;;;;;;5025487;28;20038;-81
2020/12/12 12:48:22;;;;;;;3.85;2.30;;;8.00;99.90;;;;;;5008944;28;20068;-81
2020/12/12 12:50:50;;;;;;;6.22;3.08;;;7.90;99.90;;;;;;5011333;28;20037;-82
2020/12/12 12:53:33;;;;;;;5.93;2.83;;;7.90;99.90;;;;;;5012474;28;20030;-82
2020/12/12 12:56:11;;;;;;;5.97;2.78;;;7.90;99.90;;;;;;4980486;28;20042;-81
2020/12/12 12:58:47;;;;;;;;;;;;;;;;;;;;;
2020/12/12 13:01:18;;;;;;;6.97;4.72;;;7.80;99.90;;;;;;5001733;28;21107;-82
2020/12/12 13:03:49;;;;;;;4.78;2.90;;;7.80;99.90;;;;;;4974806;28;20034;-81
2020/12/12 13:07:10;;;;;;;;;;;;;;;;;;;;;
2020/12/12 13:09:54;;;;;;;;;;;;;;;;;;;;;
2020/12/12 13:12:47;;;;;;;8.32;3.90;;;7.80;99.90;;;;;;5012797;28;20125;-83